createdAt,value
2018-07-09T00:01:30.870Z,60.32
2018-07-09T00:04:02.340Z,60.06
2018-07-09T00:06:33.678Z,60.09
2018-07-09T00:11:39.746Z,60.17
2018-07-09T00:14:09.244Z,59.78
2018-07-09T00:16:38.573Z,60.26
2018-07-09T00:19:08.277Z,59.98
2018-07-09T00:21:41.576Z,59.99
2018-07-09T00:24:10.995Z,60.65
2018-07-09T00:26:41.538Z,60.48
2018-07-09T00:29:11.045Z,60.78
2018-07-09T00:31:43.357Z,61.23
2018-07-09T00:34:13.089Z,60.98
2018-07-09T00:36:42.545Z,61.49
2018-07-09T00:39:11.941Z,61.51
2018-07-09T00:41:44.739Z,61.29
2018-07-09T00:44:17.394Z,61.31
2018-07-09T00:46:56.859Z,61.47
2018-07-09T00:49:31.273Z,61.63
2018-07-09T00:52:00.839Z,62.22
2018-07-09T00:54:30.135Z,61.43
2018-07-09T00:56:59.629Z,61.28
2018-07-09T00:59:34.185Z,61.79
2018-07-09T01:02:03.633Z,61.76
2018-07-09T01:04:33.689Z,61.85
2018-07-09T01:07:04.415Z,62.71
2018-07-09T01:09:33.807Z,62.72
2018-07-09T01:12:10.111Z,62.50
2018-07-09T01:14:40.110Z,62.47
2018-07-09T01:17:11.605Z,63.08
2018-07-09T01:19:40.907Z,63.18
2018-07-09T01:22:10.107Z,62.75
2018-07-09T01:24:44.380Z,63.32
2018-07-09T01:27:14.647Z,62.79
2018-07-09T01:29:46.291Z,63.30
2018-07-09T01:32:16.884Z,63.24
2018-07-09T01:34:49.260Z,62.73
2018-07-09T01:37:19.907Z,63.03
2018-07-09T01:39:51.867Z,62.68
2018-07-09T01:42:26.072Z,63.25
2018-07-09T01:44:56.957Z,63.21
2018-07-09T01:47:29.229Z,63.33
2018-07-09T01:49:59.137Z,63.34
2018-07-09T01:52:28.897Z,63.32
2018-07-09T01:55:02.508Z,63.47
2018-07-09T01:57:32.115Z,63.22
2018-07-09T02:00:01.409Z,62.86
2018-07-09T02:02:31.342Z,63.27
2018-07-09T02:05:08.184Z,62.98
2018-07-09T02:07:38.841Z,63.25
2018-07-09T02:10:08.943Z,63.04
2018-07-09T02:12:38.823Z,63.60
2018-07-09T02:15:14.142Z,63.38
2018-07-09T02:17:46.300Z,63.67
2018-07-09T02:20:15.576Z,63.87
2018-07-09T02:22:45.178Z,63.94
2018-07-09T02:25:14.505Z,63.49
2018-07-09T02:30:18.416Z,63.29
2018-07-09T02:32:48.186Z,63.41
2018-07-09T02:35:18.550Z,63.48
2018-07-09T02:37:48.177Z,64.28
2018-07-09T02:40:19.745Z,64.05
2018-07-09T02:42:57.484Z,64.36
2018-07-09T02:48:05.189Z,64.26
2018-07-09T02:50:34.413Z,63.75
2018-07-09T02:53:03.539Z,63.80
2018-07-09T02:55:37.227Z,64.02
2018-07-09T02:58:11.470Z,64.71
2018-07-09T03:00:48.357Z,64.41
2018-07-09T03:03:24.597Z,63.86
2018-07-09T03:05:54.586Z,63.81
2018-07-09T03:08:25.436Z,64.22
2018-07-09T03:10:58.761Z,63.91
2018-07-09T03:13:29.888Z,64.39
2018-07-09T03:16:00.203Z,64.17
2018-07-09T03:18:29.488Z,64.63
2018-07-09T03:20:58.792Z,64.47
2018-07-09T03:23:28.003Z,64.37
2018-07-09T03:25:57.540Z,64.00
2018-07-09T03:28:27.965Z,64.29
2018-07-09T03:30:57.476Z,64.71
2018-07-09T03:33:26.660Z,64.88
2018-07-09T03:35:56.126Z,64.67
2018-07-09T03:38:25.605Z,64.71
2018-07-09T03:40:55.660Z,65.30
2018-07-09T03:43:25.070Z,65.92
2018-07-09T03:46:03.439Z,66.13
2018-07-09T03:48:35.541Z,66.42
2018-07-09T03:51:08.000Z,66.46
2018-07-09T03:53:38.174Z,66.07
2018-07-09T03:56:08.252Z,65.93
2018-07-09T03:58:37.787Z,66.12
2018-07-09T04:01:11.503Z,66.28
2018-07-09T04:03:46.544Z,66.04
2018-07-09T04:06:23.003Z,66.18
2018-07-09T04:08:53.365Z,65.81
2018-07-09T04:11:28.848Z,66.31
2018-07-09T04:14:05.342Z,65.92
2018-07-09T04:16:36.647Z,66.11
2018-07-09T04:19:09.367Z,66.29
2018-07-09T04:21:39.282Z,66.87
2018-07-09T04:24:08.581Z,66.44
2018-07-09T04:26:43.791Z,67.13
2018-07-09T04:29:14.686Z,67.18
2018-07-09T04:39:48.812Z,67.24
2018-07-09T04:42:20.020Z,66.96
2018-07-09T04:47:26.410Z,66.73
2018-07-09T04:49:57.454Z,67.14
2018-07-09T04:52:41.810Z,67.10
2018-07-09T04:55:14.420Z,66.62
2018-07-09T05:00:28.988Z,66.74
2018-07-09T05:03:08.377Z,66.21
2018-07-09T05:05:48.188Z,66.00
2018-07-09T05:08:18.873Z,65.21
2018-07-09T05:10:48.202Z,65.30
2018-07-09T05:13:25.284Z,65.28
2018-07-09T05:18:40.627Z,65.36
2018-07-09T05:21:10.009Z,65.33
2018-07-09T05:23:42.679Z,65.03
2018-07-09T05:26:12.276Z,64.67
2018-07-09T05:28:44.977Z,64.71
2018-07-09T05:31:17.861Z,64.91
2018-07-09T05:36:27.525Z,64.86
2018-07-09T05:38:57.951Z,64.28
2018-07-09T05:44:08.457Z,64.32
2018-07-09T05:49:23.028Z,64.92
2018-07-09T05:52:01.476Z,64.58
2018-07-09T05:54:40.519Z,64.38
2018-07-09T05:59:49.491Z,64.00
2018-07-09T06:02:18.858Z,63.72
2018-07-09T06:04:48.735Z,63.39
2018-07-09T06:07:18.688Z,64.06
2018-07-09T06:09:48.900Z,63.80
2018-07-09T06:12:18.220Z,63.64
2018-07-09T06:14:51.747Z,63.63
2018-07-09T06:17:34.873Z,64.09
2018-07-09T06:20:11.818Z,63.35
2018-07-09T06:22:54.851Z,63.45
2018-07-09T06:25:30.701Z,64.04
2018-07-09T06:28:00.085Z,63.32
2018-07-09T06:30:29.565Z,62.90
2018-07-09T06:32:58.874Z,63.34
2018-07-09T06:35:29.826Z,62.50
2018-07-09T06:37:59.398Z,62.44
2018-07-09T06:40:34.797Z,62.16
2018-07-09T06:43:07.337Z,61.77
2018-07-09T06:48:34.925Z,62.13
2018-07-09T06:51:07.513Z,61.58
2018-07-09T06:53:38.947Z,61.82
2018-07-09T06:56:10.919Z,61.80
2018-07-09T06:58:40.556Z,61.51
2018-07-09T07:01:11.227Z,60.88
2018-07-09T07:03:40.445Z,60.85
2018-07-09T07:06:11.608Z,61.25
2018-07-09T07:08:41.234Z,61.11
2018-07-09T07:11:12.955Z,61.34
2018-07-09T07:13:51.517Z,60.93
2018-07-09T07:16:27.542Z,61.64
2018-07-09T07:19:02.569Z,61.45
2018-07-09T07:21:34.574Z,61.35
2018-07-09T07:24:08.481Z,61.40
2018-07-09T07:26:46.178Z,61.57
2018-07-09T07:29:17.551Z,61.69
2018-07-09T07:34:30.274Z,61.12
2018-07-09T07:37:09.003Z,60.84
2018-07-09T07:39:40.428Z,59.72
2018-07-09T07:42:12.079Z,55.91
2018-07-09T07:44:43.587Z,54.26
2018-07-09T07:47:12.900Z,52.38
2018-07-09T07:49:42.202Z,51.39
2018-07-09T07:52:11.807Z,50.79
2018-07-09T07:54:48.890Z,50.12
2018-07-09T07:57:25.345Z,48.68
2018-07-09T08:00:10.578Z,48.76
2018-07-09T08:02:47.678Z,48.81
2018-07-09T08:05:19.048Z,49.68
2018-07-09T08:13:27.979Z,49.63
2018-07-09T08:15:50.533Z,49.88
2018-07-09T08:18:30.085Z,50.85
2018-07-09T08:21:10.818Z,50.47
2018-07-09T08:23:45.575Z,51.47
2018-07-09T08:26:18.036Z,52.61
2018-07-09T08:28:55.494Z,52.43
2018-07-09T08:31:25.425Z,52.99
2018-07-09T08:33:55.217Z,52.26
2018-07-09T08:36:25.021Z,51.99
2018-07-09T08:38:54.934Z,52.15
2018-07-09T08:41:24.646Z,52.62
2018-07-09T08:43:54.646Z,52.83
2018-07-09T08:46:24.177Z,52.27
2018-07-09T08:48:54.292Z,52.07
2018-07-09T08:51:23.875Z,51.60
2018-07-09T08:53:53.445Z,50.35
2018-07-09T08:56:23.148Z,50.61
2018-07-09T08:58:53.189Z,51.29
2018-07-09T09:01:22.638Z,50.98
2018-07-09T09:03:52.310Z,51.52
2018-07-09T09:06:22.307Z,50.71
2018-07-09T09:08:51.900Z,50.55
2018-07-09T09:11:21.824Z,50.51
2018-07-09T09:13:51.603Z,50.59
2018-07-09T09:16:21.041Z,49.72
2018-07-09T09:18:51.257Z,50.14
2018-07-09T09:21:20.862Z,50.09
2018-07-09T09:23:50.701Z,49.37
2018-07-09T09:26:20.432Z,50.40
2018-07-09T09:28:50.260Z,50.58
2018-07-09T09:31:19.991Z,50.60
2018-07-09T09:33:49.474Z,52.05
2018-07-09T09:36:19.181Z,52.58
2018-07-09T09:38:48.985Z,51.90
2018-07-09T09:41:18.393Z,50.86
2018-07-09T09:43:47.913Z,51.34
2018-07-09T09:46:17.621Z,51.33
2018-07-09T09:48:46.974Z,51.07
2018-07-09T09:51:16.871Z,51.41
2018-07-09T09:53:46.736Z,52.07
2018-07-09T09:56:16.137Z,52.89
2018-07-09T09:58:45.748Z,52.32
2018-07-09T10:01:15.415Z,52.43
2018-07-09T10:03:44.962Z,54.20
2018-07-09T10:06:14.670Z,52.37
2018-07-09T10:08:44.492Z,51.93
2018-07-09T10:11:13.952Z,51.66
2018-07-09T10:13:43.548Z,51.75
2018-07-09T10:16:13.648Z,51.37
2018-07-09T10:18:43.640Z,50.90
2018-07-09T10:21:13.117Z,50.70
2018-07-09T10:23:43.176Z,52.21
2018-07-09T10:26:12.644Z,52.21
2018-07-09T10:28:42.027Z,51.57
2018-07-09T10:31:12.209Z,50.34
2018-07-09T10:33:42.190Z,49.56
2018-07-09T10:36:12.046Z,50.96
2018-07-09T10:38:41.861Z,51.77
2018-07-09T10:41:11.621Z,51.23
2018-07-09T10:43:41.489Z,50.66
2018-07-09T10:46:11.386Z,51.27
2018-07-09T10:48:41.381Z,50.75
2018-07-09T10:51:11.769Z,50.82
2018-07-09T10:53:42.027Z,50.64
2018-07-09T10:56:11.697Z,50.87
2018-07-09T10:58:41.198Z,51.42
2018-07-09T11:01:11.433Z,51.71
2018-07-09T11:03:41.465Z,51.26
2018-07-09T11:06:11.272Z,51.25
2018-07-09T11:08:41.212Z,52.37
2018-07-09T11:11:11.009Z,52.03
2018-07-09T11:13:40.520Z,51.64
2018-07-09T11:16:10.257Z,50.63
2018-07-09T11:18:40.071Z,51.22
2018-07-09T11:21:09.484Z,51.01
2018-07-09T11:23:39.113Z,50.07
2018-07-09T11:26:08.844Z,50.22
2018-07-09T11:28:38.213Z,49.84
2018-07-09T11:31:07.826Z,49.91
2018-07-09T11:33:37.362Z,50.82
2018-07-09T11:36:07.359Z,51.07
2018-07-09T11:38:36.951Z,51.14
2018-07-09T11:41:06.307Z,51.10
2018-07-09T11:43:35.663Z,51.23
2018-07-09T11:46:05.685Z,50.86
2018-07-09T11:48:35.397Z,51.34
2018-07-09T11:51:04.904Z,51.47
2018-07-09T11:53:34.511Z,51.55
2018-07-09T11:56:04.387Z,51.15
2018-07-09T11:58:34.079Z,50.68
2018-07-09T12:01:04.037Z,49.25
2018-07-09T12:03:34.124Z,50.50
2018-07-09T12:06:03.962Z,50.11
2018-07-09T12:08:33.591Z,49.78
2018-07-09T12:11:03.005Z,50.04
2018-07-09T12:13:32.612Z,49.69
2018-07-09T12:16:02.305Z,49.61
2018-07-09T12:18:32.229Z,49.21
2018-07-09T12:21:02.156Z,48.64
2018-07-09T12:23:31.577Z,48.40
2018-07-09T12:26:01.017Z,48.69
2018-07-09T12:28:30.587Z,48.36
2018-07-09T12:31:00.353Z,48.45
2018-07-09T12:33:29.664Z,47.93
2018-07-09T12:35:59.274Z,46.37
2018-07-09T12:38:28.880Z,46.51
2018-07-09T12:40:58.377Z,46.23
2018-07-09T12:43:28.079Z,45.88
2018-07-09T12:45:57.868Z,45.72
2018-07-09T12:48:27.689Z,44.86
2018-07-09T12:50:57.226Z,45.30
2018-07-09T12:53:27.715Z,44.51
2018-07-09T12:55:57.078Z,45.34
2018-07-09T12:58:26.713Z,45.41
2018-07-09T13:00:56.316Z,45.23
2018-07-09T13:04:29.043Z,45.78
2018-07-09T13:06:58.784Z,45.77
2018-07-09T13:09:28.454Z,45.14
2018-07-09T13:11:57.844Z,45.18
2018-07-09T13:14:27.532Z,45.27
2018-07-09T13:16:57.299Z,45.72
2018-07-09T13:19:26.744Z,45.06
2018-07-09T13:21:56.844Z,45.53
2018-07-09T13:24:26.924Z,45.91
2018-07-09T13:26:56.580Z,45.13
2018-07-09T13:29:26.512Z,45.12
2018-07-09T13:31:56.267Z,45.83
2018-07-09T13:34:26.157Z,45.82
2018-07-09T13:36:56.299Z,44.93
2018-07-09T13:39:26.134Z,45.73
2018-07-09T13:41:55.866Z,45.43
2018-07-09T13:44:26.203Z,45.96
2018-07-09T13:46:56.124Z,47.23
2018-07-09T13:49:26.463Z,46.84
2018-07-09T13:51:56.060Z,46.90
2018-07-09T13:54:26.211Z,46.06
2018-07-09T13:56:56.391Z,46.21
2018-07-09T13:59:26.080Z,46.62
2018-07-09T14:01:55.960Z,45.69
2018-07-09T14:04:25.830Z,46.05
2018-07-09T14:06:55.464Z,45.88
2018-07-09T14:09:25.239Z,45.47
2018-07-09T14:11:55.475Z,45.91
2018-07-09T14:14:25.157Z,46.42
2018-07-09T14:16:54.868Z,45.51
2018-07-09T14:20:37.761Z,45.83
2018-07-09T14:23:08.446Z,45.04
2018-07-09T14:25:38.370Z,45.21
2018-07-09T14:28:08.159Z,43.82
2018-07-09T14:30:37.679Z,44.40
2018-07-09T14:33:07.550Z,45.37
2018-07-09T14:35:37.291Z,44.57
2018-07-09T14:38:06.859Z,44.77
2018-07-09T14:40:36.430Z,45.74
2018-07-09T14:43:06.025Z,46.11
2018-07-09T14:45:35.529Z,46.88
2018-07-09T14:48:05.387Z,46.70
2018-07-09T14:50:35.223Z,46.37
2018-07-09T14:53:04.651Z,46.74
2018-07-09T14:55:34.466Z,46.40
2018-07-09T14:58:04.237Z,46.52
2018-07-09T15:00:33.967Z,46.37
2018-07-09T15:03:04.353Z,46.18
2018-07-09T15:05:34.323Z,46.91
2018-07-09T15:08:03.975Z,47.08
2018-07-09T15:10:34.184Z,47.55
2018-07-09T15:13:03.719Z,47.32
2018-07-09T15:15:33.303Z,47.72
2018-07-09T15:18:03.395Z,46.94
2018-07-09T15:20:33.144Z,47.51
2018-07-09T15:23:03.230Z,46.87
2018-07-09T15:25:33.102Z,46.45
2018-07-09T15:28:03.077Z,46.29
2018-07-09T15:30:32.996Z,47.35
2018-07-09T15:33:02.690Z,47.58
2018-07-09T15:35:32.085Z,47.42
2018-07-09T15:38:01.885Z,47.54
2018-07-09T15:40:31.627Z,46.87
2018-07-09T15:43:01.175Z,46.89
2018-07-09T15:45:31.141Z,46.59
2018-07-09T15:48:00.701Z,47.47
2018-07-09T15:50:30.183Z,46.80
2018-07-09T15:52:59.893Z,47.84
2018-07-09T15:55:29.683Z,47.44
2018-07-09T15:57:58.986Z,47.44
2018-07-09T16:00:28.703Z,47.72
2018-07-09T16:02:58.609Z,48.63
2018-07-09T16:05:29.065Z,47.65
2018-07-09T16:07:58.921Z,47.37
2018-07-09T16:10:28.565Z,48.05
2018-07-09T16:12:58.126Z,47.60
2018-07-09T16:15:27.778Z,48.13
2018-07-09T16:17:57.640Z,48.44
2018-07-09T16:20:27.169Z,48.21
2018-07-09T16:22:57.066Z,47.36
2018-07-09T16:25:26.719Z,47.55
2018-07-09T16:27:56.734Z,48.28
2018-07-09T16:30:26.165Z,48.48
2018-07-09T16:32:55.769Z,48.50
2018-07-09T16:35:25.309Z,48.34
2018-07-09T16:37:54.869Z,48.03
2018-07-09T16:40:24.708Z,48.00
2018-07-09T16:42:54.512Z,47.50
2018-07-09T16:45:24.295Z,48.53
2018-07-09T16:47:54.327Z,48.58
2018-07-09T16:50:24.342Z,48.53
2018-07-09T16:52:53.683Z,48.09
2018-07-09T16:55:23.359Z,48.35
2018-07-09T16:57:52.965Z,48.78
2018-07-09T17:00:22.468Z,49.18
2018-07-09T17:02:52.072Z,49.16
2018-07-09T17:05:21.837Z,49.10
2018-07-09T17:07:51.400Z,49.65
2018-07-09T17:10:21.172Z,49.77
2018-07-09T17:12:50.883Z,49.64
2018-07-09T17:15:20.382Z,49.18
2018-07-09T17:17:50.159Z,48.90
2018-07-09T17:20:20.076Z,49.82
2018-07-09T17:22:49.767Z,50.36
2018-07-09T17:25:19.708Z,49.81
2018-07-09T17:27:49.295Z,50.35
2018-07-09T17:30:19.069Z,50.45
2018-07-09T17:32:48.670Z,50.10
2018-07-09T17:35:18.096Z,50.58
2018-07-09T17:37:48.391Z,50.35
2018-07-09T17:40:18.299Z,50.50
2018-07-09T17:42:48.095Z,50.34
2018-07-09T17:45:17.873Z,51.04
2018-07-09T17:47:47.811Z,50.80
2018-07-09T17:50:17.797Z,52.66
2018-07-09T17:52:47.476Z,53.99
2018-07-09T17:55:17.313Z,57.11
2018-07-09T17:57:47.784Z,61.76
2018-07-09T18:00:17.718Z,63.43
2018-07-09T18:02:48.051Z,63.24
2018-07-09T18:05:17.660Z,62.83
2018-07-09T18:07:47.375Z,63.01
2018-07-09T18:10:17.462Z,64.04
2018-07-09T18:12:47.368Z,65.48
2018-07-09T18:15:17.716Z,65.89
2018-07-09T18:17:47.769Z,65.96
2018-07-09T18:20:17.532Z,66.70
2018-07-09T18:22:47.390Z,66.58
2018-07-09T18:25:17.962Z,67.23
2018-07-09T18:27:47.394Z,67.76
2018-07-09T18:30:27.208Z,67.66
2018-07-09T18:33:00.221Z,68.46
2018-07-09T18:35:30.365Z,68.22
2018-07-09T18:38:00.197Z,68.72
2018-07-09T18:40:29.567Z,68.28
2018-07-09T18:42:59.275Z,68.15
2018-07-09T18:45:28.838Z,68.28
2018-07-09T18:47:58.411Z,69.04
2018-07-09T18:50:28.176Z,68.30
2018-07-09T18:52:57.742Z,67.94
2018-07-09T18:55:27.714Z,68.30
2018-07-09T18:57:57.288Z,68.49
2018-07-09T19:00:26.851Z,68.50
2018-07-09T19:02:56.679Z,68.52
2018-07-09T19:05:33.110Z,68.59
2018-07-09T19:08:03.222Z,68.66
2018-07-09T19:10:33.290Z,67.82
2018-07-09T19:13:03.025Z,68.43
2018-07-09T19:15:32.994Z,67.76
2018-07-09T19:18:18.544Z,68.28
2018-07-09T19:21:33.598Z,68.17
2018-07-09T19:24:02.226Z,68.25
2018-07-09T19:26:30.045Z,67.95
2018-07-09T19:28:58.316Z,68.83
2018-07-09T19:31:26.630Z,69.52
2018-07-09T19:33:55.199Z,69.22
2018-07-09T19:36:23.502Z,69.30
2018-07-09T19:38:51.495Z,69.99
2018-07-09T19:41:19.862Z,70.16
2018-07-09T19:43:47.716Z,70.95
2018-07-09T19:46:15.698Z,70.58
2018-07-09T19:48:43.981Z,70.60
2018-07-09T19:51:11.777Z,70.38
2018-07-09T19:53:39.852Z,70.62
2018-07-09T19:56:08.431Z,70.30
2018-07-09T19:58:36.539Z,70.11
2018-07-09T20:01:04.534Z,70.02
2018-07-09T20:03:32.386Z,69.43
2018-07-09T20:06:01.052Z,68.67
2018-07-09T20:08:33.804Z,68.56
2018-07-09T20:11:06.693Z,67.98
2018-07-09T20:14:08.786Z,68.21
2018-07-09T20:16:41.789Z,67.39
2018-07-09T20:19:09.813Z,67.45
2018-07-09T20:21:37.798Z,67.20
2018-07-09T20:24:05.525Z,66.84
2018-07-09T20:26:33.850Z,67.06
2018-07-09T20:29:02.046Z,67.05
2018-07-09T20:31:29.683Z,67.65
2018-07-09T20:33:57.561Z,67.54
2018-07-09T20:36:25.700Z,67.59
2018-07-09T20:38:54.489Z,68.35
2018-07-09T20:41:22.563Z,68.07
2018-07-09T20:43:50.696Z,68.92
2018-07-09T20:46:18.529Z,68.17
2018-07-09T20:48:46.356Z,67.77
2018-07-09T20:51:16.180Z,68.43
2018-07-09T20:53:44.090Z,68.85
2018-07-09T20:56:12.254Z,68.39
2018-07-09T20:58:40.208Z,68.44
2018-07-09T21:01:08.259Z,68.62
2018-07-09T21:03:36.223Z,68.62
2018-07-09T21:06:04.245Z,68.70
2018-07-09T21:08:32.356Z,69.25
2018-07-09T21:11:01.380Z,69.52
2018-07-09T21:13:31.600Z,69.32
2018-07-09T21:15:59.737Z,68.87
2018-07-09T21:18:27.702Z,69.03
2018-07-09T21:20:55.919Z,68.69
2018-07-09T21:23:23.875Z,68.86
2018-07-09T21:25:52.244Z,69.05
2018-07-09T21:28:20.380Z,68.92
2018-07-09T21:30:48.248Z,68.58
2018-07-09T21:33:16.364Z,68.85
2018-07-09T21:35:44.220Z,68.14
2018-07-09T21:38:12.253Z,68.42
2018-07-09T21:40:40.409Z,68.06
2018-07-09T21:43:08.385Z,67.91
2018-07-09T21:45:36.203Z,68.13
2018-07-09T21:48:10.556Z,68.27
2018-07-09T21:50:32.700Z,68.12
2018-07-09T21:53:00.455Z,68.94
2018-07-09T21:55:28.630Z,68.83
2018-07-09T21:57:56.903Z,68.82
2018-07-09T22:00:24.663Z,68.69
2018-07-09T22:02:52.602Z,69.02
2018-07-09T22:05:20.670Z,68.93
2018-07-09T22:07:48.557Z,68.32
2018-07-09T22:10:16.374Z,68.84
2018-07-09T22:12:44.370Z,69.06
2018-07-09T22:15:12.338Z,68.77
2018-07-09T22:17:40.818Z,69.09
2018-07-09T22:20:09.095Z,68.71
2018-07-09T22:22:36.966Z,68.85
2018-07-09T22:25:05.244Z,67.97
2018-07-09T22:27:33.517Z,68.20
2018-07-09T22:30:01.306Z,68.00
2018-07-09T22:32:30.990Z,68.15
2018-07-09T22:35:00.942Z,68.05
2018-07-09T22:37:30.728Z,67.92
2018-07-09T22:40:00.183Z,67.87
2018-07-09T22:42:29.871Z,67.68
2018-07-09T22:44:59.612Z,67.60
2018-07-09T22:47:29.083Z,67.65
2018-07-09T22:49:58.872Z,67.27
2018-07-09T22:52:28.669Z,67.09
2018-07-09T22:56:10.667Z,66.98
2018-07-09T22:58:41.511Z,67.39
2018-07-09T23:01:11.155Z,66.99
2018-07-09T23:03:40.776Z,66.87
2018-07-09T23:06:09.997Z,67.06
2018-07-09T23:08:39.754Z,66.77
2018-07-09T23:11:20.133Z,67.04
2018-07-09T23:14:59.369Z,66.83
2018-07-09T23:17:39.689Z,66.87
2018-07-09T23:22:24.933Z,66.73
2018-07-09T23:24:53.016Z,67.13
2018-07-09T23:27:20.911Z,67.02
2018-07-09T23:29:48.782Z,66.94
2018-07-09T23:32:16.953Z,66.95
2018-07-09T23:34:45.023Z,67.47
2018-07-09T23:37:13.000Z,67.23
2018-07-09T23:39:41.038Z,67.04
2018-07-09T23:42:08.936Z,66.55
2018-07-09T23:44:36.897Z,66.10
2018-07-09T23:47:05.073Z,65.95
2018-07-09T23:49:33.094Z,66.38
2018-07-09T23:52:00.830Z,65.85
2018-07-09T23:54:29.120Z,66.24
2018-07-09T23:58:12.981Z,66.16
